sensor_id;sensor_type;location;lat;lon;timestamp;P1;durP1;ratioP1;P2;durP2;ratioP2
55330;SDS011;58851;42.984;20.336;2023-12-04T00:02:01;19.38;;;12.50;;
55330;SDS011;58851;42.984;20.336;2023-12-04T00:04:27;13.38;;;9.00;;
55330;SDS011;58851;42.984;20.336;2023-12-04T00:06:53;22.10;;;14.32;;
55330;SDS011;58851;42.984;20.336;2023-12-04T00:09:19;15.15;;;10.85;;
55330;SDS011;58851;42.984;20.336;2023-12-04T00:11:46;15.50;;;10.30;;
55330;SDS011;58851;42.984;20.336;2023-12-04T00:14:12;18.08;;;12.60;;
55330;SDS011;58851;42.984;20.336;2023-12-04T00:16:37;19.08;;;12.18;;
55330;SDS011;58851;42.984;20.336;2023-12-04T00:19:03;14.30;;;9.80;;
55330;SDS011;58851;42.984;20.336;2023-12-04T00:21:29;27.13;;;16.63;;
55330;SDS011;58851;42.984;20.336;2023-12-04T00:23:55;16.40;;;11.68;;
55330;SDS011;58851;42.984;20.336;2023-12-04T00:26:21;21.90;;;11.93;;
55330;SDS011;58851;42.984;20.336;2023-12-04T00:28:46;32.05;;;18.48;;
55330;SDS011;58851;42.984;20.336;2023-12-04T00:31:12;25.63;;;16.10;;
55330;SDS011;58851;42.984;20.336;2023-12-04T00:33:38;25.67;;;15.95;;
55330;SDS011;58851;42.984;20.336;2023-12-04T00:36:04;31.83;;;19.85;;
55330;SDS011;58851;42.984;20.336;2023-12-04T00:38:30;28.38;;;19.02;;
55330;SDS011;58851;42.984;20.336;2023-12-04T00:40:56;22.30;;;15.13;;
55330;SDS011;58851;42.984;20.336;2023-12-04T00:43:22;22.83;;;16.10;;
55330;SDS011;58851;42.984;20.336;2023-12-04T00:45:48;31.15;;;20.95;;
55330;SDS011;58851;42.984;20.336;2023-12-04T00:48:14;24.88;;;15.45;;
55330;SDS011;58851;42.984;20.336;2023-12-04T00:50:41;26.77;;;17.45;;
55330;SDS011;58851;42.984;20.336;2023-12-04T00:53:07;30.15;;;20.48;;
55330;SDS011;58851;42.984;20.336;2023-12-04T00:55:32;29.75;;;19.60;;
55330;SDS011;58851;42.984;20.336;2023-12-04T00:57:58;27.13;;;17.58;;
55330;SDS011;58851;42.984;20.336;2023-12-04T01:00:24;40.88;;;24.42;;
55330;SDS011;58851;42.984;20.336;2023-12-04T01:02:51;27.83;;;18.60;;
55330;SDS011;58851;42.984;20.336;2023-12-04T01:05:17;18.08;;;12.90;;
55330;SDS011;58851;42.984;20.336;2023-12-04T01:07:42;23.10;;;15.63;;
55330;SDS011;58851;42.984;20.336;2023-12-04T01:10:08;19.52;;;12.10;;
55330;SDS011;58851;42.984;20.336;2023-12-04T01:12:34;15.88;;;9.05;;
55330;SDS011;58851;42.984;20.336;2023-12-04T01:15:01;22.50;;;15.77;;
55330;SDS011;58851;42.984;20.336;2023-12-04T01:17:28;15.52;;;10.57;;
55330;SDS011;58851;42.984;20.336;2023-12-04T01:19:54;15.35;;;10.98;;
55330;SDS011;58851;42.984;20.336;2023-12-04T01:22:20;17.45;;;11.43;;
55330;SDS011;58851;42.984;20.336;2023-12-04T01:24:47;14.02;;;10.60;;
55330;SDS011;58851;42.984;20.336;2023-12-04T01:27:12;15.13;;;9.77;;
55330;SDS011;58851;42.984;20.336;2023-12-04T01:29:39;19.23;;;13.18;;
55330;SDS011;58851;42.984;20.336;2023-12-04T01:32:06;12.85;;;9.05;;
55330;SDS011;58851;42.984;20.336;2023-12-04T01:34:32;14.25;;;10.35;;
55330;SDS011;58851;42.984;20.336;2023-12-04T01:36:58;15.55;;;11.05;;
55330;SDS011;58851;42.984;20.336;2023-12-04T01:39:24;17.10;;;11.57;;
55330;SDS011;58851;42.984;20.336;2023-12-04T01:41:50;19.83;;;13.30;;
55330;SDS011;58851;42.984;20.336;2023-12-04T01:44:16;21.38;;;13.75;;
55330;SDS011;58851;42.984;20.336;2023-12-04T01:46:46;17.98;;;13.15;;
55330;SDS011;58851;42.984;20.336;2023-12-04T01:49:13;21.02;;;15.05;;
55330;SDS011;58851;42.984;20.336;2023-12-04T01:51:39;14.55;;;11.38;;
55330;SDS011;58851;42.984;20.336;2023-12-04T01:54:05;17.02;;;12.13;;
55330;SDS011;58851;42.984;20.336;2023-12-04T01:56:36;18.75;;;14.10;;
55330;SDS011;58851;42.984;20.336;2023-12-04T01:59:13;18.90;;;12.18;;
55330;SDS011;58851;42.984;20.336;2023-12-04T02:01:39;20.00;;;13.13;;
55330;SDS011;58851;42.984;20.336;2023-12-04T02:04:22;19.13;;;12.85;;
55330;SDS011;58851;42.984;20.336;2023-12-04T02:07:19;17.90;;;13.43;;
55330;SDS011;58851;42.984;20.336;2023-12-04T02:09:45;29.65;;;17.98;;
55330;SDS011;58851;42.984;20.336;2023-12-04T02:12:11;26.02;;;17.45;;
55330;SDS011;58851;42.984;20.336;2023-12-04T02:14:37;32.10;;;18.50;;
55330;SDS011;58851;42.984;20.336;2023-12-04T02:17:03;26.83;;;17.83;;
55330;SDS011;58851;42.984;20.336;2023-12-04T02:19:31;28.70;;;19.35;;
55330;SDS011;58851;42.984;20.336;2023-12-04T02:21:57;21.80;;;15.25;;
55330;SDS011;58851;42.984;20.336;2023-12-04T02:24:23;24.20;;;17.00;;
55330;SDS011;58851;42.984;20.336;2023-12-04T02:26:59;23.10;;;16.02;;
55330;SDS011;58851;42.984;20.336;2023-12-04T02:29:46;24.88;;;15.77;;
55330;SDS011;58851;42.984;20.336;2023-12-04T02:32:16;22.85;;;14.00;;
55330;SDS011;58851;42.984;20.336;2023-12-04T02:34:44;18.75;;;12.20;;
55330;SDS011;58851;42.984;20.336;2023-12-04T02:37:12;21.38;;;13.50;;
55330;SDS011;58851;42.984;20.336;2023-12-04T02:39:39;19.83;;;12.25;;
55330;SDS011;58851;42.984;20.336;2023-12-04T02:42:06;16.60;;;13.10;;
55330;SDS011;58851;42.984;20.336;2023-12-04T02:44:31;20.83;;;12.68;;
55330;SDS011;58851;42.984;20.336;2023-12-04T02:46:58;17.83;;;13.55;;
55330;SDS011;58851;42.984;20.336;2023-12-04T02:49:24;19.88;;;14.10;;
55330;SDS011;58851;42.984;20.336;2023-12-04T02:51:49;18.00;;;12.60;;
55330;SDS011;58851;42.984;20.336;2023-12-04T02:54:15;17.35;;;11.98;;
55330;SDS011;58851;42.984;20.336;2023-12-04T02:56:41;23.08;;;14.95;;
55330;SDS011;58851;42.984;20.336;2023-12-04T02:59:07;18.08;;;12.20;;
55330;SDS011;58851;42.984;20.336;2023-12-04T03:01:33;21.17;;;14.13;;
55330;SDS011;58851;42.984;20.336;2023-12-04T03:03:59;18.25;;;12.60;;
55330;SDS011;58851;42.984;20.336;2023-12-04T03:06:24;28.13;;;17.77;;
55330;SDS011;58851;42.984;20.336;2023-12-04T03:08:50;21.88;;;15.27;;
55330;SDS011;58851;42.984;20.336;2023-12-04T03:11:16;20.50;;;14.65;;
55330;SDS011;58851;42.984;20.336;2023-12-04T03:13:42;17.60;;;13.23;;
55330;SDS011;58851;42.984;20.336;2023-12-04T03:16:14;20.00;;;14.00;;
55330;SDS011;58851;42.984;20.336;2023-12-04T03:18:44;21.13;;;15.07;;
55330;SDS011;58851;42.984;20.336;2023-12-04T03:21:10;23.02;;;13.85;;
55330;SDS011;58851;42.984;20.336;2023-12-04T03:23:36;26.40;;;16.85;;
55330;SDS011;58851;42.984;20.336;2023-12-04T03:26:02;30.48;;;19.92;;
55330;SDS011;58851;42.984;20.336;2023-12-04T03:28:28;25.77;;;18.60;;
55330;SDS011;58851;42.984;20.336;2023-12-04T03:30:54;34.83;;;24.83;;
55330;SDS011;58851;42.984;20.336;2023-12-04T03:33:20;23.65;;;16.02;;
55330;SDS011;58851;42.984;20.336;2023-12-04T03:35:46;23.45;;;17.48;;
55330;SDS011;58851;42.984;20.336;2023-12-04T03:38:12;25.23;;;16.73;;
55330;SDS011;58851;42.984;20.336;2023-12-04T03:40:38;21.20;;;14.10;;
55330;SDS011;58851;42.984;20.336;2023-12-04T03:43:04;21.45;;;15.00;;
55330;SDS011;58851;42.984;20.336;2023-12-04T03:45:29;19.73;;;14.25;;
55330;SDS011;58851;42.984;20.336;2023-12-04T03:47:55;23.42;;;14.20;;
55330;SDS011;58851;42.984;20.336;2023-12-04T03:50:21;26.08;;;18.38;;
55330;SDS011;58851;42.984;20.336;2023-12-04T03:52:47;23.17;;;17.17;;
55330;SDS011;58851;42.984;20.336;2023-12-04T03:55:13;26.50;;;16.52;;
55330;SDS011;58851;42.984;20.336;2023-12-04T03:57:38;24.67;;;17.23;;
55330;SDS011;58851;42.984;20.336;2023-12-04T04:00:04;19.88;;;14.23;;
55330;SDS011;58851;42.984;20.336;2023-12-04T04:02:30;20.90;;;14.77;;
55330;SDS011;58851;42.984;20.336;2023-12-04T04:04:56;19.65;;;14.38;;
55330;SDS011;58851;42.984;20.336;2023-12-04T04:07:22;23.30;;;15.43;;
55330;SDS011;58851;42.984;20.336;2023-12-04T04:09:48;22.42;;;15.00;;
55330;SDS011;58851;42.984;20.336;2023-12-04T04:12:13;20.77;;;14.25;;
55330;SDS011;58851;42.984;20.336;2023-12-04T04:14:39;22.40;;;14.63;;
55330;SDS011;58851;42.984;20.336;2023-12-04T04:17:05;19.95;;;14.23;;
55330;SDS011;58851;42.984;20.336;2023-12-04T04:19:31;22.83;;;14.18;;
55330;SDS011;58851;42.984;20.336;2023-12-04T04:21:57;21.40;;;15.07;;
55330;SDS011;58851;42.984;20.336;2023-12-04T04:24:23;23.50;;;15.65;;
55330;SDS011;58851;42.984;20.336;2023-12-04T04:26:49;23.55;;;14.43;;
55330;SDS011;58851;42.984;20.336;2023-12-04T04:29:14;25.88;;;15.70;;
55330;SDS011;58851;42.984;20.336;2023-12-04T04:31:40;23.45;;;14.60;;
55330;SDS011;58851;42.984;20.336;2023-12-04T04:34:06;24.88;;;15.68;;
55330;SDS011;58851;42.984;20.336;2023-12-04T04:36:32;19.80;;;13.73;;
55330;SDS011;58851;42.984;20.336;2023-12-04T04:38:57;24.10;;;15.50;;
55330;SDS011;58851;42.984;20.336;2023-12-04T04:41:23;26.42;;;15.95;;
55330;SDS011;58851;42.984;20.336;2023-12-04T04:43:49;27.20;;;17.25;;
55330;SDS011;58851;42.984;20.336;2023-12-04T04:46:15;25.75;;;16.23;;
55330;SDS011;58851;42.984;20.336;2023-12-04T04:48:40;29.15;;;16.38;;
55330;SDS011;58851;42.984;20.336;2023-12-04T04:51:06;23.85;;;17.58;;
55330;SDS011;58851;42.984;20.336;2023-12-04T04:53:32;25.83;;;15.50;;
55330;SDS011;58851;42.984;20.336;2023-12-04T04:55:58;25.50;;;16.83;;
55330;SDS011;58851;42.984;20.336;2023-12-04T04:58:24;28.38;;;16.55;;
55330;SDS011;58851;42.984;20.336;2023-12-04T05:00:50;29.98;;;18.88;;
55330;SDS011;58851;42.984;20.336;2023-12-04T05:03:16;32.90;;;18.92;;
55330;SDS011;58851;42.984;20.336;2023-12-04T05:05:42;25.85;;;18.17;;
55330;SDS011;58851;42.984;20.336;2023-12-04T05:08:07;28.30;;;18.10;;
55330;SDS011;58851;42.984;20.336;2023-12-04T05:10:33;24.20;;;16.98;;
55330;SDS011;58851;42.984;20.336;2023-12-04T05:12:59;23.42;;;16.58;;
55330;SDS011;58851;42.984;20.336;2023-12-04T05:15:25;26.42;;;16.70;;
55330;SDS011;58851;42.984;20.336;2023-12-04T05:17:51;23.45;;;16.00;;
55330;SDS011;58851;42.984;20.336;2023-12-04T05:20:17;23.00;;;15.23;;
55330;SDS011;58851;42.984;20.336;2023-12-04T05:22:43;25.00;;;16.95;;
55330;SDS011;58851;42.984;20.336;2023-12-04T05:25:08;36.53;;;21.55;;
55330;SDS011;58851;42.984;20.336;2023-12-04T05:27:34;29.17;;;18.73;;
55330;SDS011;58851;42.984;20.336;2023-12-04T05:30:00;27.98;;;18.50;;
55330;SDS011;58851;42.984;20.336;2023-12-04T05:32:26;40.67;;;25.52;;
55330;SDS011;58851;42.984;20.336;2023-12-04T05:34:51;39.42;;;22.77;;
55330;SDS011;58851;42.984;20.336;2023-12-04T05:37:17;25.58;;;18.35;;
55330;SDS011;58851;42.984;20.336;2023-12-04T05:39:43;34.03;;;20.77;;
55330;SDS011;58851;42.984;20.336;2023-12-04T05:42:09;100.18;;;53.25;;
55330;SDS011;58851;42.984;20.336;2023-12-04T05:44:34;33.88;;;21.52;;
55330;SDS011;58851;42.984;20.336;2023-12-04T05:47:00;43.08;;;23.95;;
55330;SDS011;58851;42.984;20.336;2023-12-04T05:49:26;28.05;;;18.70;;
55330;SDS011;58851;42.984;20.336;2023-12-04T05:51:54;31.35;;;17.67;;
55330;SDS011;58851;42.984;20.336;2023-12-04T05:54:20;36.67;;;23.10;;
55330;SDS011;58851;42.984;20.336;2023-12-04T05:56:47;50.72;;;34.58;;
55330;SDS011;58851;42.984;20.336;2023-12-04T05:59:14;41.47;;;27.23;;
55330;SDS011;58851;42.984;20.336;2023-12-04T06:01:40;33.58;;;23.65;;
55330;SDS011;58851;42.984;20.336;2023-12-04T06:04:06;78.45;;;46.50;;
55330;SDS011;58851;42.984;20.336;2023-12-04T06:06:32;44.92;;;24.48;;
55330;SDS011;58851;42.984;20.336;2023-12-04T06:08:58;49.00;;;27.13;;
55330;SDS011;58851;42.984;20.336;2023-12-04T06:11:24;47.25;;;29.65;;
55330;SDS011;58851;42.984;20.336;2023-12-04T06:13:50;50.90;;;29.48;;
55330;SDS011;58851;42.984;20.336;2023-12-04T06:16:15;68.45;;;34.22;;
55330;SDS011;58851;42.984;20.336;2023-12-04T06:18:41;73.90;;;44.90;;
55330;SDS011;58851;42.984;20.336;2023-12-04T06:21:07;76.07;;;46.15;;
55330;SDS011;58851;42.984;20.336;2023-12-04T06:23:33;58.47;;;35.33;;
55330;SDS011;58851;42.984;20.336;2023-12-04T06:25:59;40.65;;;26.08;;
55330;SDS011;58851;42.984;20.336;2023-12-04T06:28:26;34.97;;;22.48;;
55330;SDS011;58851;42.984;20.336;2023-12-04T06:30:52;62.03;;;35.53;;
55330;SDS011;58851;42.984;20.336;2023-12-04T06:33:18;47.92;;;30.33;;
55330;SDS011;58851;42.984;20.336;2023-12-04T06:35:45;53.13;;;34.25;;
55330;SDS011;58851;42.984;20.336;2023-12-04T06:38:12;36.08;;;24.67;;
55330;SDS011;58851;42.984;20.336;2023-12-04T06:40:41;48.10;;;28.45;;
55330;SDS011;58851;42.984;20.336;2023-12-04T06:43:08;41.55;;;25.20;;
55330;SDS011;58851;42.984;20.336;2023-12-04T06:45:34;51.33;;;31.23;;
55330;SDS011;58851;42.984;20.336;2023-12-04T06:48:00;47.08;;;24.95;;
55330;SDS011;58851;42.984;20.336;2023-12-04T06:50:26;39.25;;;24.30;;
55330;SDS011;58851;42.984;20.336;2023-12-04T06:52:53;73.03;;;38.50;;
55330;SDS011;58851;42.984;20.336;2023-12-04T06:55:19;45.45;;;26.60;;
55330;SDS011;58851;42.984;20.336;2023-12-04T06:57:45;44.83;;;27.20;;
55330;SDS011;58851;42.984;20.336;2023-12-04T07:00:11;32.08;;;20.05;;
55330;SDS011;58851;42.984;20.336;2023-12-04T07:02:39;26.15;;;14.52;;
55330;SDS011;58851;42.984;20.336;2023-12-04T07:05:05;24.65;;;16.45;;
55330;SDS011;58851;42.984;20.336;2023-12-04T07:07:31;31.38;;;18.33;;
55330;SDS011;58851;42.984;20.336;2023-12-04T07:09:58;34.90;;;23.48;;
55330;SDS011;58851;42.984;20.336;2023-12-04T07:12:24;32.28;;;20.38;;
55330;SDS011;58851;42.984;20.336;2023-12-04T07:14:49;34.78;;;22.65;;
55330;SDS011;58851;42.984;20.336;2023-12-04T07:17:15;40.40;;;25.45;;
55330;SDS011;58851;42.984;20.336;2023-12-04T07:19:41;34.15;;;22.50;;
55330;SDS011;58851;42.984;20.336;2023-12-04T07:22:07;27.83;;;18.63;;
55330;SDS011;58851;42.984;20.336;2023-12-04T07:24:33;43.58;;;26.52;;
55330;SDS011;58851;42.984;20.336;2023-12-04T07:26:59;39.38;;;27.27;;
55330;SDS011;58851;42.984;20.336;2023-12-04T07:29:25;63.67;;;37.70;;
55330;SDS011;58851;42.984;20.336;2023-12-04T07:31:51;47.60;;;31.83;;
55330;SDS011;58851;42.984;20.336;2023-12-04T07:34:16;52.10;;;33.65;;
55330;SDS011;58851;42.984;20.336;2023-12-04T07:36:42;47.75;;;30.45;;
55330;SDS011;58851;42.984;20.336;2023-12-04T07:39:09;65.47;;;36.90;;
55330;SDS011;58851;42.984;20.336;2023-12-04T07:41:36;51.30;;;33.67;;
55330;SDS011;58851;42.984;20.336;2023-12-04T07:44:02;44.83;;;27.60;;
55330;SDS011;58851;42.984;20.336;2023-12-04T07:46:28;36.03;;;22.67;;
55330;SDS011;58851;42.984;20.336;2023-12-04T07:48:55;41.20;;;26.88;;
55330;SDS011;58851;42.984;20.336;2023-12-04T07:51:21;35.05;;;24.08;;
55330;SDS011;58851;42.984;20.336;2023-12-04T07:53:47;37.25;;;25.50;;
55330;SDS011;58851;42.984;20.336;2023-12-04T07:56:13;59.03;;;35.28;;
55330;SDS011;58851;42.984;20.336;2023-12-04T07:58:39;24.33;;;15.02;;
55330;SDS011;58851;42.984;20.336;2023-12-04T08:01:05;22.20;;;15.23;;
55330;SDS011;58851;42.984;20.336;2023-12-04T08:03:31;18.10;;;11.65;;
55330;SDS011;58851;42.984;20.336;2023-12-04T08:05:57;17.38;;;11.32;;
55330;SDS011;58851;42.984;20.336;2023-12-04T08:08:23;16.42;;;11.05;;
55330;SDS011;58851;42.984;20.336;2023-12-04T08:10:50;22.13;;;15.07;;
55330;SDS011;58851;42.984;20.336;2023-12-04T08:13:16;18.42;;;12.55;;
55330;SDS011;58851;42.984;20.336;2023-12-04T08:15:42;24.08;;;16.48;;
55330;SDS011;58851;42.984;20.336;2023-12-04T08:18:08;28.77;;;18.63;;
55330;SDS011;58851;42.984;20.336;2023-12-04T08:20:34;23.13;;;16.10;;
55330;SDS011;58851;42.984;20.336;2023-12-04T08:23:00;31.10;;;22.60;;
55330;SDS011;58851;42.984;20.336;2023-12-04T08:25:25;35.90;;;27.27;;
55330;SDS011;58851;42.984;20.336;2023-12-04T08:27:51;30.10;;;24.50;;
55330;SDS011;58851;42.984;20.336;2023-12-04T08:30:17;24.85;;;18.20;;
55330;SDS011;58851;42.984;20.336;2023-12-04T08:32:43;25.58;;;20.90;;
55330;SDS011;58851;42.984;20.336;2023-12-04T08:35:09;24.60;;;19.00;;
55330;SDS011;58851;42.984;20.336;2023-12-04T08:37:35;19.25;;;14.25;;
55330;SDS011;58851;42.984;20.336;2023-12-04T08:40:01;21.77;;;14.43;;
55330;SDS011;58851;42.984;20.336;2023-12-04T08:42:28;24.50;;;17.73;;
55330;SDS011;58851;42.984;20.336;2023-12-04T08:44:54;23.15;;;13.50;;
55330;SDS011;58851;42.984;20.336;2023-12-04T08:47:20;28.88;;;19.50;;
55330;SDS011;58851;42.984;20.336;2023-12-04T08:49:46;26.90;;;19.15;;
55330;SDS011;58851;42.984;20.336;2023-12-04T08:52:12;27.35;;;18.00;;
55330;SDS011;58851;42.984;20.336;2023-12-04T08:54:41;24.38;;;15.02;;
55330;SDS011;58851;42.984;20.336;2023-12-04T08:57:07;29.63;;;20.10;;
55330;SDS011;58851;42.984;20.336;2023-12-04T08:59:34;22.95;;;15.48;;
55330;SDS011;58851;42.984;20.336;2023-12-04T09:02:00;26.27;;;19.70;;
55330;SDS011;58851;42.984;20.336;2023-12-04T09:04:30;34.70;;;26.33;;
55330;SDS011;58851;42.984;20.336;2023-12-04T09:06:56;38.20;;;26.67;;
55330;SDS011;58851;42.984;20.336;2023-12-04T09:09:22;33.08;;;22.98;;
55330;SDS011;58851;42.984;20.336;2023-12-04T09:11:48;48.55;;;29.73;;
55330;SDS011;58851;42.984;20.336;2023-12-04T09:14:14;38.10;;;25.05;;
55330;SDS011;58851;42.984;20.336;2023-12-04T09:16:41;32.70;;;21.80;;
55330;SDS011;58851;42.984;20.336;2023-12-04T09:19:07;73.90;;;45.53;;
55330;SDS011;58851;42.984;20.336;2023-12-04T09:21:32;91.75;;;50.08;;
55330;SDS011;58851;42.984;20.336;2023-12-04T09:23:58;75.05;;;48.53;;
55330;SDS011;58851;42.984;20.336;2023-12-04T09:26:24;42.10;;;27.80;;
55330;SDS011;58851;42.984;20.336;2023-12-04T09:28:50;25.67;;;18.80;;
55330;SDS011;58851;42.984;20.336;2023-12-04T09:31:16;42.05;;;29.35;;
55330;SDS011;58851;42.984;20.336;2023-12-04T09:33:41;49.67;;;32.28;;
55330;SDS011;58851;42.984;20.336;2023-12-04T09:36:07;45.03;;;30.05;;
55330;SDS011;58851;42.984;20.336;2023-12-04T09:38:34;30.48;;;20.17;;
55330;SDS011;58851;42.984;20.336;2023-12-04T09:41:01;26.63;;;18.35;;
55330;SDS011;58851;42.984;20.336;2023-12-04T09:43:31;22.02;;;15.20;;
55330;SDS011;58851;42.984;20.336;2023-12-04T09:45:57;20.15;;;13.77;;
55330;SDS011;58851;42.984;20.336;2023-12-04T09:48:24;23.70;;;18.17;;
55330;SDS011;58851;42.984;20.336;2023-12-04T09:50:52;27.65;;;18.45;;
55330;SDS011;58851;42.984;20.336;2023-12-04T09:53:18;27.27;;;18.23;;
55330;SDS011;58851;42.984;20.336;2023-12-04T09:55:48;25.73;;;16.83;;
55330;SDS011;58851;42.984;20.336;2023-12-04T09:58:15;32.78;;;20.88;;
55330;SDS011;58851;42.984;20.336;2023-12-04T10:00:44;26.08;;;17.73;;
55330;SDS011;58851;42.984;20.336;2023-12-04T10:03:11;35.17;;;22.40;;
55330;SDS011;58851;42.984;20.336;2023-12-04T10:05:40;30.33;;;21.23;;
55330;SDS011;58851;42.984;20.336;2023-12-04T10:08:10;51.47;;;28.98;;
55330;SDS011;58851;42.984;20.336;2023-12-04T10:10:36;47.88;;;32.40;;
55330;SDS011;58851;42.984;20.336;2023-12-04T10:13:02;37.10;;;25.42;;
55330;SDS011;58851;42.984;20.336;2023-12-04T10:15:28;34.83;;;23.50;;
55330;SDS011;58851;42.984;20.336;2023-12-04T10:17:54;60.45;;;42.30;;
55330;SDS011;58851;42.984;20.336;2023-12-04T10:20:20;44.33;;;32.28;;
55330;SDS011;58851;42.984;20.336;2023-12-04T10:25:20;80.45;;;48.55;;
55330;SDS011;58851;42.984;20.336;2023-12-04T10:27:48;58.17;;;39.38;;
55330;SDS011;58851;42.984;20.336;2023-12-04T10:30:23;53.20;;;36.60;;
55330;SDS011;58851;42.984;20.336;2023-12-04T10:32:55;56.22;;;36.00;;
55330;SDS011;58851;42.984;20.336;2023-12-04T10:35:29;50.63;;;34.03;;
55330;SDS011;58851;42.984;20.336;2023-12-04T10:37:58;57.40;;;38.70;;
55330;SDS011;58851;42.984;20.336;2023-12-04T10:40:28;45.42;;;30.55;;
55330;SDS011;58851;42.984;20.336;2023-12-04T10:45:34;37.70;;;25.75;;
55330;SDS011;58851;42.984;20.336;2023-12-04T10:48:04;49.33;;;34.22;;
55330;SDS011;58851;42.984;20.336;2023-12-04T10:50:34;37.33;;;27.15;;
55330;SDS011;58851;42.984;20.336;2023-12-04T10:53:03;39.45;;;25.58;;
55330;SDS011;58851;42.984;20.336;2023-12-04T10:55:33;42.03;;;28.23;;
55330;SDS011;58851;42.984;20.336;2023-12-04T10:58:05;323.60;;;62.20;;
55330;SDS011;58851;42.984;20.336;2023-12-04T11:00:48;34.20;;;26.25;;
55330;SDS011;58851;42.984;20.336;2023-12-04T11:03:19;51.42;;;24.27;;
55330;SDS011;58851;42.984;20.336;2023-12-04T11:05:55;44.53;;;28.30;;
55330;SDS011;58851;42.984;20.336;2023-12-04T11:08:24;81.35;;;45.05;;
55330;SDS011;58851;42.984;20.336;2023-12-04T11:10:56;61.92;;;39.95;;
55330;SDS011;58851;42.984;20.336;2023-12-04T11:13:26;75.18;;;52.08;;
55330;SDS011;58851;42.984;20.336;2023-12-04T11:15:55;60.70;;;41.65;;
55330;SDS011;58851;42.984;20.336;2023-12-04T11:18:26;336.48;;;73.47;;
55330;SDS011;58851;42.984;20.336;2023-12-04T11:20:59;164.40;;;44.00;;
55330;SDS011;58851;42.984;20.336;2023-12-04T11:23:32;43.47;;;26.67;;
55330;SDS011;58851;42.984;20.336;2023-12-04T11:25:59;474.23;;;87.05;;
55330;SDS011;58851;42.984;20.336;2023-12-04T11:28:27;67.43;;;44.08;;
55330;SDS011;58851;42.984;20.336;2023-12-04T11:30:54;46.03;;;29.38;;
55330;SDS011;58851;42.984;20.336;2023-12-04T11:33:21;53.40;;;36.58;;
55330;SDS011;58851;42.984;20.336;2023-12-04T11:35:47;49.83;;;34.97;;
55330;SDS011;58851;42.984;20.336;2023-12-04T11:38:13;36.42;;;26.38;;
55330;SDS011;58851;42.984;20.336;2023-12-04T11:40:40;38.42;;;23.90;;
55330;SDS011;58851;42.984;20.336;2023-12-04T11:43:24;49.25;;;32.95;;
55330;SDS011;58851;42.984;20.336;2023-12-04T11:45:51;44.40;;;29.45;;
55330;SDS011;58851;42.984;20.336;2023-12-04T11:48:22;49.10;;;29.90;;
55330;SDS011;58851;42.984;20.336;2023-12-04T11:50:51;54.30;;;36.03;;
55330;SDS011;58851;42.984;20.336;2023-12-04T11:53:17;52.08;;;35.55;;
55330;SDS011;58851;42.984;20.336;2023-12-04T11:55:43;47.53;;;30.98;;
55330;SDS011;58851;42.984;20.336;2023-12-04T11:58:11;43.45;;;30.42;;
55330;SDS011;58851;42.984;20.336;2023-12-04T12:00:38;47.28;;;31.05;;
55330;SDS011;58851;42.984;20.336;2023-12-04T12:03:07;55.35;;;37.20;;
55330;SDS011;58851;42.984;20.336;2023-12-04T12:05:37;53.85;;;35.00;;
55330;SDS011;58851;42.984;20.336;2023-12-04T12:08:04;48.53;;;28.25;;
55330;SDS011;58851;42.984;20.336;2023-12-04T12:10:31;43.10;;;27.23;;
55330;SDS011;58851;42.984;20.336;2023-12-04T12:12:58;61.03;;;36.75;;
55330;SDS011;58851;42.984;20.336;2023-12-04T12:15:24;56.55;;;30.25;;
55330;SDS011;58851;42.984;20.336;2023-12-04T12:17:51;33.55;;;23.45;;
55330;SDS011;58851;42.984;20.336;2023-12-04T12:20:17;50.15;;;28.73;;
55330;SDS011;58851;42.984;20.336;2023-12-04T12:22:45;51.13;;;32.60;;
55330;SDS011;58851;42.984;20.336;2023-12-04T12:25:13;49.63;;;33.47;;
55330;SDS011;58851;42.984;20.336;2023-12-04T12:27:40;40.33;;;27.25;;
55330;SDS011;58851;42.984;20.336;2023-12-04T12:30:06;45.25;;;31.92;;
55330;SDS011;58851;42.984;20.336;2023-12-04T12:32:32;38.42;;;26.38;;
55330;SDS011;58851;42.984;20.336;2023-12-04T12:34:59;42.40;;;26.10;;
55330;SDS011;58851;42.984;20.336;2023-12-04T12:37:25;36.58;;;26.80;;
55330;SDS011;58851;42.984;20.336;2023-12-04T12:39:51;106.20;;;33.70;;
55330;SDS011;58851;42.984;20.336;2023-12-04T12:42:25;49.85;;;28.33;;
55330;SDS011;58851;42.984;20.336;2023-12-04T12:44:52;48.03;;;33.55;;
55330;SDS011;58851;42.984;20.336;2023-12-04T12:47:19;42.63;;;29.88;;
55330;SDS011;58851;42.984;20.336;2023-12-04T12:49:45;34.53;;;25.58;;
55330;SDS011;58851;42.984;20.336;2023-12-04T12:52:11;37.55;;;24.80;;
55330;SDS011;58851;42.984;20.336;2023-12-04T12:54:40;76.68;;;31.05;;
55330;SDS011;58851;42.984;20.336;2023-12-04T12:57:07;183.57;;;44.60;;
55330;SDS011;58851;42.984;20.336;2023-12-04T12:59:33;103.07;;;31.77;;
55330;SDS011;58851;42.984;20.336;2023-12-04T13:02:00;62.63;;;27.00;;
55330;SDS011;58851;42.984;20.336;2023-12-04T13:04:26;124.47;;;33.35;;
55330;SDS011;58851;42.984;20.336;2023-12-04T13:07:02;50.58;;;28.45;;
55330;SDS011;58851;42.984;20.336;2023-12-04T13:09:29;50.25;;;35.42;;
55330;SDS011;58851;42.984;20.336;2023-12-04T13:11:55;47.47;;;28.83;;
55330;SDS011;58851;42.984;20.336;2023-12-04T13:14:21;44.50;;;29.00;;
55330;SDS011;58851;42.984;20.336;2023-12-04T13:16:47;50.63;;;31.90;;
55330;SDS011;58851;42.984;20.336;2023-12-04T13:19:14;44.22;;;27.30;;
55330;SDS011;58851;42.984;20.336;2023-12-04T13:21:42;60.65;;;37.72;;
55330;SDS011;58851;42.984;20.336;2023-12-04T13:24:09;51.17;;;34.42;;
55330;SDS011;58851;42.984;20.336;2023-12-04T13:26:36;75.32;;;45.60;;
55330;SDS011;58851;42.984;20.336;2023-12-04T13:29:02;99.18;;;52.50;;
55330;SDS011;58851;42.984;20.336;2023-12-04T13:31:28;66.05;;;41.45;;
55330;SDS011;58851;42.984;20.336;2023-12-04T13:33:54;300.58;;;66.05;;
55330;SDS011;58851;42.984;20.336;2023-12-04T13:36:20;87.88;;;45.42;;
55330;SDS011;58851;42.984;20.336;2023-12-04T13:38:50;70.75;;;44.08;;
55330;SDS011;58851;42.984;20.336;2023-12-04T13:41:16;56.10;;;36.17;;
55330;SDS011;58851;42.984;20.336;2023-12-04T13:44:01;59.47;;;38.47;;
55330;SDS011;58851;42.984;20.336;2023-12-04T13:46:28;51.55;;;34.08;;
55330;SDS011;58851;42.984;20.336;2023-12-04T13:48:58;139.15;;;48.33;;
55330;SDS011;58851;42.984;20.336;2023-12-04T13:51:24;45.75;;;31.42;;
55330;SDS011;58851;42.984;20.336;2023-12-04T13:53:51;53.65;;;35.38;;
55330;SDS011;58851;42.984;20.336;2023-12-04T13:56:21;47.53;;;30.02;;
55330;SDS011;58851;42.984;20.336;2023-12-04T13:59:07;90.70;;;36.28;;
55330;SDS011;58851;42.984;20.336;2023-12-04T14:01:33;78.45;;;28.90;;
55330;SDS011;58851;42.984;20.336;2023-12-04T14:04:03;55.80;;;32.00;;
55330;SDS011;58851;42.984;20.336;2023-12-04T14:06:30;39.38;;;22.42;;
55330;SDS011;58851;42.984;20.336;2023-12-04T14:08:56;37.47;;;23.00;;
55330;SDS011;58851;42.984;20.336;2023-12-04T14:11:23;41.58;;;27.77;;
55330;SDS011;58851;42.984;20.336;2023-12-04T14:13:49;32.58;;;22.25;;